createdAt,value
2023-02-19T00:02:53.149Z,4.28
2023-02-19T00:07:54.476Z,4.47
2023-02-19T00:12:55.811Z,4.28
2023-02-19T00:17:57.117Z,5.30
2023-02-19T00:22:58.578Z,3.72
2023-02-19T00:28:00.531Z,3.28
2023-02-19T00:33:01.898Z,3.90
2023-02-19T00:38:03.747Z,4.47
2023-02-19T00:43:05.080Z,4.80
2023-02-19T00:48:06.365Z,3.58
2023-02-19T00:53:07.679Z,3.92
2023-02-19T00:58:09.059Z,4.47
2023-02-19T01:03:10.406Z,5.18
2023-02-19T01:08:11.736Z,4.30
2023-02-19T01:13:13.286Z,4.40
2023-02-19T01:18:14.748Z,4.70
2023-02-19T01:23:16.082Z,3.97
2023-02-19T01:28:17.434Z,4.65
2023-02-19T01:33:18.796Z,4.55
2023-02-19T01:38:20.215Z,3.95
2023-02-19T01:43:21.577Z,4.43
2023-02-19T01:48:37.599Z,5.40
2023-02-19T01:53:44.324Z,3.85
2023-02-19T01:58:46.274Z,7.28
2023-02-19T02:03:49.434Z,4.70
2023-02-19T02:09:12.181Z,4.50
2023-02-19T02:14:14.717Z,4.32
2023-02-19T02:19:47.051Z,4.60
2023-02-19T02:25:16.304Z,5.55
2023-02-19T02:30:20.738Z,6.88
2023-02-19T02:35:27.481Z,5.25
2023-02-19T02:40:29.011Z,4.43
2023-02-19T02:45:35.556Z,3.33
2023-02-19T02:51:06.795Z,3.08
2023-02-19T02:56:11.028Z,3.25
2023-02-19T03:01:38.672Z,3.05
2023-02-19T03:06:41.950Z,3.33
2023-02-19T03:12:06.352Z,3.35
2023-02-19T03:17:33.748Z,2.80
2023-02-19T03:22:37.758Z,2.60
2023-02-19T03:27:42.533Z,2.47
2023-02-19T03:32:55.734Z,2.85
2023-02-19T03:38:06.740Z,2.50
2023-02-19T03:43:34.687Z,3.10
2023-02-19T03:48:41.189Z,2.30
2023-02-19T03:54:03.985Z,2.45
2023-02-19T03:59:13.007Z,2.33
2023-02-19T04:04:25.213Z,2.60
2023-02-19T04:09:33.677Z,1.55
2023-02-19T04:14:53.579Z,2.90
2023-02-19T04:19:58.812Z,2.42
2023-02-19T04:25:00.883Z,2.60
2023-02-19T04:30:02.455Z,2.08
2023-02-19T04:35:03.843Z,2.60
2023-02-19T04:40:06.230Z,2.22
2023-02-19T04:45:08.073Z,1.80
2023-02-19T04:50:09.421Z,1.65
2023-02-19T04:55:10.718Z,1.02
2023-02-19T05:00:12.617Z,1.20
2023-02-19T05:05:13.943Z,1.15
2023-02-19T05:10:15.410Z,0.82
2023-02-19T05:15:16.823Z,0.98
2023-02-19T05:20:18.330Z,0.80
2023-02-19T05:25:19.626Z,0.50
2023-02-19T05:30:20.993Z,0.73
2023-02-19T05:35:22.383Z,0.90
2023-02-19T05:40:24.106Z,0.60
2023-02-19T05:45:26.303Z,0.52
2023-02-19T05:50:27.839Z,0.90
2023-02-19T05:55:33.316Z,0.25
2023-02-19T06:00:34.897Z,0.75
2023-02-19T06:05:37.476Z,0.40
2023-02-19T06:10:41.289Z,0.60
2023-02-19T06:15:42.675Z,0.80
2023-02-19T06:20:44.081Z,1.10
2023-02-19T06:25:45.539Z,2.28
2023-02-19T06:30:47.227Z,0.40
2023-02-19T06:35:48.528Z,0.68
2023-02-19T06:40:49.866Z,0.52
2023-02-19T06:45:51.310Z,1.05
2023-02-19T06:50:53.123Z,0.98
2023-02-19T06:56:20.728Z,0.82
2023-02-19T07:01:23.969Z,0.82
2023-02-19T07:06:26.545Z,5.55
2023-02-19T07:11:30.790Z,2.42
2023-02-19T07:16:32.302Z,0.70
2023-02-19T07:21:37.564Z,1.40
2023-02-19T07:26:38.913Z,1.63
2023-02-19T07:31:40.297Z,1.58
2023-02-19T07:36:41.915Z,1.85
2023-02-19T07:41:43.340Z,1.35
2023-02-19T07:46:45.013Z,1.02
2023-02-19T07:51:46.301Z,2.08
2023-02-19T07:56:47.886Z,2.55
2023-02-19T08:02:08.035Z,2.05
2023-02-19T08:07:09.441Z,1.60
2023-02-19T08:12:30.098Z,2.53
2023-02-19T08:17:31.465Z,0.82
2023-02-19T08:22:32.827Z,1.98
2023-02-19T08:27:34.130Z,1.50
2023-02-19T08:32:35.498Z,1.95
2023-02-19T08:37:36.808Z,1.40
2023-02-19T08:42:38.253Z,1.45
2023-02-19T08:47:39.902Z,2.15
2023-02-19T08:52:41.266Z,2.25
2023-02-19T08:57:42.783Z,1.30
2023-02-19T09:02:44.336Z,2.83
2023-02-19T09:07:45.646Z,3.22
2023-02-19T09:12:48.243Z,3.28
2023-02-19T09:17:53.150Z,1.52
2023-02-19T09:22:59.078Z,2.63
2023-02-19T09:28:00.396Z,3.22
2023-02-19T09:33:01.784Z,2.72
2023-02-19T09:38:03.360Z,2.80
2023-02-19T09:43:20.981Z,2.10
2023-02-19T09:48:22.587Z,3.83
2023-02-19T09:53:29.709Z,1.75
2023-02-19T09:58:34.678Z,2.70
2023-02-19T10:03:41.304Z,2.38
2023-02-19T10:08:45.916Z,4.65
2023-02-19T10:14:09.285Z,3.42
2023-02-19T10:19:12.929Z,3.88
2023-02-19T10:24:23.339Z,2.17
2023-02-19T10:29:24.987Z,4.90
2023-02-19T10:34:26.351Z,2.70
2023-02-19T10:39:46.678Z,4.78
2023-02-19T10:44:54.173Z,3.85
2023-02-19T10:49:59.480Z,5.30
2023-02-19T10:55:26.293Z,3.20
2023-02-19T11:00:30.533Z,5.50
2023-02-19T11:05:32.118Z,4.93
2023-02-19T11:10:42.462Z,5.75
2023-02-19T11:15:44.306Z,3.47
2023-02-19T11:21:00.407Z,3.63
2023-02-19T11:26:06.448Z,3.50
2023-02-19T11:31:19.937Z,4.38
2023-02-19T11:36:29.484Z,3.08
2023-02-19T11:41:49.894Z,4.07
2023-02-19T11:47:04.849Z,4.78
2023-02-19T11:52:21.355Z,1.80
2023-02-19T11:57:35.824Z,4.47
2023-02-19T12:03:02.265Z,3.17
2023-02-19T12:08:22.749Z,2.70
2023-02-19T12:13:38.690Z,2.70
2023-02-19T12:19:08.220Z,2.83
2023-02-19T12:24:54.057Z,3.67
2023-02-19T12:30:02.451Z,2.80
2023-02-19T12:35:33.305Z,3.92
2023-02-19T12:40:50.010Z,3.97
2023-02-19T12:45:57.970Z,5.05
2023-02-19T12:51:07.976Z,3.63
2023-02-19T12:56:17.092Z,3.83
2023-02-19T13:01:23.943Z,2.42
2023-02-19T13:06:40.064Z,5.25
2023-02-19T13:11:49.142Z,3.30
2023-02-19T13:16:56.236Z,4.15
2023-02-19T13:22:27.639Z,3.90
2023-02-19T13:33:13.633Z,4.03
2023-02-19T13:38:15.489Z,3.10
2023-02-19T13:43:29.166Z,1.45
2023-02-19T13:48:33.803Z,2.15
2023-02-19T13:53:41.520Z,1.92
2023-02-19T13:58:53.794Z,2.85
2023-02-19T14:04:08.165Z,3.70
2023-02-19T14:09:41.412Z,6.90
2023-02-19T14:14:46.777Z,3.72
2023-02-19T14:19:52.741Z,2.85
2023-02-19T14:24:55.047Z,2.75
2023-02-19T14:29:56.885Z,3.28
2023-02-19T14:34:58.231Z,1.55
2023-02-19T14:39:59.812Z,2.80
2023-02-19T14:45:06.197Z,1.80
2023-02-19T14:50:14.950Z,5.10
2023-02-19T14:55:30.395Z,2.50
2023-02-19T15:00:41.674Z,1.65
2023-02-19T15:05:45.222Z,0.95
2023-02-19T15:10:46.975Z,2.25
2023-02-19T15:15:48.326Z,0.50
2023-02-19T15:20:51.551Z,2.28
2023-02-19T15:25:53.204Z,2.17
2023-02-19T15:30:57.670Z,1.90
2023-02-19T15:36:04.426Z,1.92
2023-02-19T15:41:05.877Z,4.82
2023-02-19T15:46:15.463Z,1.42
2023-02-19T15:51:25.468Z,0.95
2023-02-19T15:56:33.359Z,1.55
2023-02-19T16:01:38.837Z,2.53
2023-02-19T16:06:58.966Z,1.27
2023-02-19T16:12:01.897Z,2.25
2023-02-19T16:17:09.419Z,2.58
2023-02-19T16:22:12.816Z,1.20
2023-02-19T16:27:30.748Z,0.73
2023-02-19T16:32:32.251Z,2.10
2023-02-19T16:37:38.966Z,3.83
2023-02-19T16:42:49.691Z,2.60
2023-02-19T16:47:51.764Z,1.60
2023-02-19T16:52:58.369Z,1.23
2023-02-19T16:58:01.164Z,1.70
2023-02-19T17:03:09.033Z,1.85
2023-02-19T17:08:25.618Z,1.13
2023-02-19T17:13:26.890Z,2.08
2023-02-19T17:18:28.611Z,9.27
2023-02-19T17:23:29.934Z,4.10
2023-02-19T17:28:31.438Z,2.13
2023-02-19T17:33:32.756Z,3.13
2023-02-19T17:38:34.169Z,2.40
2023-02-19T17:43:35.469Z,2.15
2023-02-19T17:48:36.788Z,1.33
2023-02-19T17:53:38.071Z,1.70
2023-02-19T17:58:39.355Z,2.97
2023-02-19T18:03:40.737Z,3.85
2023-02-19T18:08:53.178Z,2.35
2023-02-19T18:13:54.625Z,1.75
2023-02-19T18:18:58.184Z,2.95
2023-02-19T18:23:59.767Z,2.50
2023-02-19T18:29:01.225Z,2.92
2023-02-19T18:34:02.934Z,2.38
2023-02-19T18:39:04.449Z,2.20
2023-02-19T18:44:05.829Z,2.95
2023-02-19T18:49:07.175Z,2.60
2023-02-19T18:54:08.498Z,2.97
2023-02-19T18:59:10.217Z,2.35
2023-02-19T19:04:12.059Z,1.77
2023-02-19T19:09:13.420Z,2.90
2023-02-19T19:14:14.862Z,3.30
2023-02-19T19:19:18.884Z,2.47
2023-02-19T19:24:21.195Z,2.30
2023-02-19T19:29:23.062Z,3.30
2023-02-19T19:34:24.778Z,3.03
2023-02-19T19:39:26.168Z,2.88
2023-02-19T19:44:27.646Z,3.58
2023-02-19T19:49:28.996Z,3.00
2023-02-19T19:54:30.311Z,5.18
2023-02-19T19:59:32.438Z,2.90
2023-02-19T20:04:33.868Z,3.13
2023-02-19T20:09:35.154Z,3.03
2023-02-19T20:14:36.476Z,5.20
2023-02-19T20:19:37.816Z,4.10
2023-02-19T20:24:39.163Z,3.80
2023-02-19T20:29:40.554Z,3.67
2023-02-19T20:34:41.878Z,4.03
2023-02-19T20:39:43.235Z,3.60
2023-02-19T20:44:44.783Z,4.55
2023-02-19T20:49:47.136Z,3.50
2023-02-19T20:54:48.443Z,4.47
2023-02-19T20:59:49.795Z,4.68
2023-02-19T21:04:51.224Z,8.73
2023-02-19T21:09:52.883Z,3.70
2023-02-19T21:14:54.238Z,3.70
2023-02-19T21:19:55.786Z,3.40
2023-02-19T21:24:57.178Z,3.22
2023-02-19T21:29:58.524Z,3.80
2023-02-19T21:34:59.886Z,4.90
2023-02-19T21:40:01.557Z,4.10
2023-02-19T21:45:03.653Z,3.85
2023-02-19T21:50:05.651Z,4.30
2023-02-19T21:55:07.094Z,5.40
2023-02-19T22:00:09.543Z,4.47
2023-02-19T22:05:11.075Z,5.22
2023-02-19T22:10:13.444Z,4.78
2023-02-19T22:15:15.197Z,6.97
2023-02-19T22:20:17.246Z,3.95
2023-02-19T22:25:18.685Z,4.22
2023-02-19T22:30:20.287Z,4.05
2023-02-19T22:35:21.930Z,5.40
2023-02-19T22:40:23.228Z,5.78
2023-02-19T22:45:25.464Z,4.53
2023-02-19T22:50:26.875Z,4.47
2023-02-19T22:55:28.549Z,4.28
2023-02-19T23:00:29.848Z,4.18
2023-02-19T23:05:32.296Z,4.43
2023-02-19T23:10:33.714Z,4.80
2023-02-19T23:15:35.118Z,3.95
2023-02-19T23:20:36.534Z,4.43
2023-02-19T23:25:37.942Z,3.97
2023-02-19T23:30:39.429Z,3.60
2023-02-19T23:35:40.961Z,5.30
2023-02-19T23:40:42.984Z,4.75
2023-02-19T23:45:44.617Z,4.93
2023-02-19T23:50:46.137Z,5.00
2023-02-19T23:55:47.526Z,4.38
